sensor_id;sensor_type;location;lat;lon;timestamp;P1;durP1;ratioP1;P2;durP2;ratioP2
58366;SDS011;57745;42.524;12.052;2022-11-03T00:01:00;2.45;;;2.17;;
58366;SDS011;57745;42.524;12.052;2022-11-03T00:03:26;2.85;;;2.45;;
58366;SDS011;57745;42.524;12.052;2022-11-03T00:05:52;2.65;;;1.90;;
58366;SDS011;57745;42.524;12.052;2022-11-03T00:08:30;2.88;;;2.20;;
58366;SDS011;57745;42.524;12.052;2022-11-03T00:11:12;2.65;;;2.20;;
58366;SDS011;57745;42.524;12.052;2022-11-03T00:13:39;2.72;;;2.08;;
58366;SDS011;57745;42.524;12.052;2022-11-03T00:16:06;3.03;;;2.38;;
58366;SDS011;57745;42.524;12.052;2022-11-03T00:18:34;2.60;;;2.25;;
58366;SDS011;57745;42.524;12.052;2022-11-03T00:21:03;2.50;;;2.30;;
58366;SDS011;57745;42.524;12.052;2022-11-03T00:23:34;2.72;;;2.20;;
58366;SDS011;57745;42.524;12.052;2022-11-03T00:26:14;3.65;;;2.30;;
58366;SDS011;57745;42.524;12.052;2022-11-03T00:28:58;2.60;;;2.30;;
58366;SDS011;57745;42.524;12.052;2022-11-03T00:33:58;2.40;;;2.20;;
58366;SDS011;57745;42.524;12.052;2022-11-03T00:36:26;3.03;;;2.78;;
58366;SDS011;57745;42.524;12.052;2022-11-03T00:38:53;2.75;;;2.25;;
58366;SDS011;57745;42.524;12.052;2022-11-03T00:41:19;2.60;;;2.10;;
58366;SDS011;57745;42.524;12.052;2022-11-03T00:43:45;2.50;;;2.30;;
58366;SDS011;57745;42.524;12.052;2022-11-03T00:46:11;3.67;;;2.25;;
58366;SDS011;57745;42.524;12.052;2022-11-03T00:48:37;3.78;;;2.50;;
58366;SDS011;57745;42.524;12.052;2022-11-03T00:51:04;2.67;;;2.30;;
58366;SDS011;57745;42.524;12.052;2022-11-03T00:53:38;2.40;;;2.20;;
58366;SDS011;57745;42.524;12.052;2022-11-03T00:56:06;2.60;;;2.40;;
58366;SDS011;57745;42.524;12.052;2022-11-03T00:58:36;2.45;;;2.25;;
58366;SDS011;57745;42.524;12.052;2022-11-03T01:01:06;2.85;;;2.40;;
58366;SDS011;57745;42.524;12.052;2022-11-03T01:03:35;3.22;;;2.55;;
58366;SDS011;57745;42.524;12.052;2022-11-03T01:06:04;3.20;;;2.55;;
58366;SDS011;57745;42.524;12.052;2022-11-03T01:08:49;3.22;;;2.63;;
58366;SDS011;57745;42.524;12.052;2022-11-03T01:11:16;3.42;;;2.40;;
58366;SDS011;57745;42.524;12.052;2022-11-03T01:14:02;3.38;;;2.42;;
58366;SDS011;57745;42.524;12.052;2022-11-03T01:16:29;3.40;;;2.60;;
58366;SDS011;57745;42.524;12.052;2022-11-03T01:18:55;5.72;;;2.60;;
58366;SDS011;57745;42.524;12.052;2022-11-03T01:21:21;2.92;;;2.53;;
58366;SDS011;57745;42.524;12.052;2022-11-03T01:23:47;4.57;;;2.95;;
58366;SDS011;57745;42.524;12.052;2022-11-03T01:26:13;2.95;;;2.38;;
58366;SDS011;57745;42.524;12.052;2022-11-03T01:28:40;4.30;;;2.75;;
58366;SDS011;57745;42.524;12.052;2022-11-03T01:31:14;3.53;;;2.95;;
58366;SDS011;57745;42.524;12.052;2022-11-03T01:33:41;4.10;;;2.75;;
58366;SDS011;57745;42.524;12.052;2022-11-03T01:36:09;3.20;;;2.75;;
58366;SDS011;57745;42.524;12.052;2022-11-03T01:38:36;3.83;;;3.15;;
58366;SDS011;57745;42.524;12.052;2022-11-03T01:41:02;3.80;;;2.55;;
58366;SDS011;57745;42.524;12.052;2022-11-03T01:43:30;2.95;;;2.65;;
58366;SDS011;57745;42.524;12.052;2022-11-03T01:48:40;4.53;;;2.40;;
58366;SDS011;57745;42.524;12.052;2022-11-03T01:51:23;2.83;;;2.25;;
58366;SDS011;57745;42.524;12.052;2022-11-03T01:53:53;3.72;;;2.20;;
58366;SDS011;57745;42.524;12.052;2022-11-03T01:56:22;3.08;;;2.22;;
58366;SDS011;57745;42.524;12.052;2022-11-03T01:58:50;3.05;;;2.58;;
58366;SDS011;57745;42.524;12.052;2022-11-03T02:01:18;2.67;;;2.15;;
58366;SDS011;57745;42.524;12.052;2022-11-03T02:03:46;2.40;;;1.92;;
58366;SDS011;57745;42.524;12.052;2022-11-03T02:08:50;3.42;;;2.28;;
58366;SDS011;57745;42.524;12.052;2022-11-03T02:11:19;2.53;;;2.33;;
58366;SDS011;57745;42.524;12.052;2022-11-03T02:14:03;4.00;;;2.58;;
58366;SDS011;57745;42.524;12.052;2022-11-03T02:16:30;2.33;;;2.05;;
58366;SDS011;57745;42.524;12.052;2022-11-03T02:18:57;2.60;;;2.05;;
58366;SDS011;57745;42.524;12.052;2022-11-03T02:21:44;2.75;;;2.35;;
58366;SDS011;57745;42.524;12.052;2022-11-03T02:26:52;4.57;;;3.15;;
58366;SDS011;57745;42.524;12.052;2022-11-03T02:29:20;3.55;;;2.80;;
58366;SDS011;57745;42.524;12.052;2022-11-03T02:34:55;3.20;;;2.50;;
58366;SDS011;57745;42.524;12.052;2022-11-03T02:37:45;5.78;;;3.42;;
58366;SDS011;57745;42.524;12.052;2022-11-03T02:40:14;3.45;;;2.67;;
58366;SDS011;57745;42.524;12.052;2022-11-03T02:42:45;5.60;;;3.30;;
58366;SDS011;57745;42.524;12.052;2022-11-03T02:45:16;4.10;;;2.75;;
58366;SDS011;57745;42.524;12.052;2022-11-03T02:47:46;3.95;;;2.60;;
58366;SDS011;57745;42.524;12.052;2022-11-03T02:50:13;4.38;;;2.78;;
58366;SDS011;57745;42.524;12.052;2022-11-03T02:52:40;3.45;;;2.65;;
58366;SDS011;57745;42.524;12.052;2022-11-03T02:55:13;5.05;;;2.67;;
58366;SDS011;57745;42.524;12.052;2022-11-03T03:00:47;3.75;;;2.65;;
58366;SDS011;57745;42.524;12.052;2022-11-03T03:03:42;3.58;;;2.80;;
58366;SDS011;57745;42.524;12.052;2022-11-03T03:06:19;5.35;;;3.22;;
58366;SDS011;57745;42.524;12.052;2022-11-03T03:08:53;3.63;;;2.72;;
58366;SDS011;57745;42.524;12.052;2022-11-03T03:11:22;4.85;;;3.05;;
58366;SDS011;57745;42.524;12.052;2022-11-03T03:14:18;3.20;;;2.75;;
58366;SDS011;57745;42.524;12.052;2022-11-03T03:27:26;3.42;;;3.08;;
58366;SDS011;57745;42.524;12.052;2022-11-03T03:29:56;5.70;;;3.85;;
58366;SDS011;57745;42.524;12.052;2022-11-03T03:32:26;5.07;;;3.50;;
58366;SDS011;57745;42.524;12.052;2022-11-03T03:34:55;3.90;;;3.20;;
58366;SDS011;57745;42.524;12.052;2022-11-03T03:37:24;9.05;;;3.60;;
58366;SDS011;57745;42.524;12.052;2022-11-03T03:39:52;5.32;;;4.07;;
58366;SDS011;57745;42.524;12.052;2022-11-03T03:42:20;5.35;;;3.60;;
58366;SDS011;57745;42.524;12.052;2022-11-03T03:44:51;5.80;;;3.63;;
58366;SDS011;57745;42.524;12.052;2022-11-03T03:47:21;6.40;;;3.95;;
58366;SDS011;57745;42.524;12.052;2022-11-03T03:49:51;7.82;;;4.05;;
58366;SDS011;57745;42.524;12.052;2022-11-03T03:52:17;5.88;;;4.30;;
58366;SDS011;57745;42.524;12.052;2022-11-03T03:54:43;5.30;;;4.07;;
58366;SDS011;57745;42.524;12.052;2022-11-03T03:57:18;5.68;;;4.00;;
58366;SDS011;57745;42.524;12.052;2022-11-03T03:59:46;5.53;;;4.00;;
58366;SDS011;57745;42.524;12.052;2022-11-03T04:02:12;7.88;;;3.72;;
58366;SDS011;57745;42.524;12.052;2022-11-03T04:04:38;5.07;;;3.95;;
58366;SDS011;57745;42.524;12.052;2022-11-03T04:07:03;8.10;;;3.83;;
58366;SDS011;57745;42.524;12.052;2022-11-03T04:09:48;4.10;;;3.38;;
58366;SDS011;57745;42.524;12.052;2022-11-03T04:12:13;6.05;;;4.38;;
58366;SDS011;57745;42.524;12.052;2022-11-03T04:14:57;5.38;;;4.20;;
58366;SDS011;57745;42.524;12.052;2022-11-03T04:17:42;5.70;;;4.43;;
58366;SDS011;57745;42.524;12.052;2022-11-03T04:20:28;6.05;;;4.40;;
58366;SDS011;57745;42.524;12.052;2022-11-03T04:23:12;6.18;;;4.53;;
58366;SDS011;57745;42.524;12.052;2022-11-03T04:25:37;7.95;;;4.70;;
58366;SDS011;57745;42.524;12.052;2022-11-03T04:28:09;8.52;;;4.60;;
58366;SDS011;57745;42.524;12.052;2022-11-03T04:30:37;6.18;;;4.40;;
58366;SDS011;57745;42.524;12.052;2022-11-03T04:33:03;6.53;;;4.78;;
58366;SDS011;57745;42.524;12.052;2022-11-03T04:35:35;6.05;;;4.78;;
58366;SDS011;57745;42.524;12.052;2022-11-03T04:38:02;9.13;;;4.90;;
58366;SDS011;57745;42.524;12.052;2022-11-03T04:40:33;5.72;;;4.35;;
58366;SDS011;57745;42.524;12.052;2022-11-03T04:42:59;8.90;;;5.00;;
58366;SDS011;57745;42.524;12.052;2022-11-03T04:45:28;6.38;;;4.88;;
58366;SDS011;57745;42.524;12.052;2022-11-03T04:47:55;6.88;;;4.45;;
58366;SDS011;57745;42.524;12.052;2022-11-03T04:50:24;6.05;;;4.50;;
58366;SDS011;57745;42.524;12.052;2022-11-03T04:52:52;7.80;;;4.45;;
58366;SDS011;57745;42.524;12.052;2022-11-03T04:55:23;7.22;;;5.00;;
58366;SDS011;57745;42.524;12.052;2022-11-03T04:57:49;7.50;;;4.97;;
58366;SDS011;57745;42.524;12.052;2022-11-03T05:00:21;7.75;;;4.82;;
58366;SDS011;57745;42.524;12.052;2022-11-03T05:02:47;8.07;;;5.00;;
58366;SDS011;57745;42.524;12.052;2022-11-03T05:05:24;5.28;;;4.47;;
58366;SDS011;57745;42.524;12.052;2022-11-03T05:07:51;7.00;;;4.32;;
58366;SDS011;57745;42.524;12.052;2022-11-03T05:10:22;7.07;;;4.60;;
58366;SDS011;57745;42.524;12.052;2022-11-03T05:12:49;6.13;;;4.78;;
58366;SDS011;57745;42.524;12.052;2022-11-03T05:17:54;6.53;;;4.35;;
58366;SDS011;57745;42.524;12.052;2022-11-03T05:20:23;8.07;;;4.57;;
58366;SDS011;57745;42.524;12.052;2022-11-03T05:22:55;6.43;;;4.55;;
58366;SDS011;57745;42.524;12.052;2022-11-03T05:25:30;5.53;;;4.45;;
58366;SDS011;57745;42.524;12.052;2022-11-03T05:27:59;6.63;;;4.25;;
58366;SDS011;57745;42.524;12.052;2022-11-03T05:30:24;6.50;;;4.43;;
58366;SDS011;57745;42.524;12.052;2022-11-03T05:32:50;6.72;;;4.45;;
58366;SDS011;57745;42.524;12.052;2022-11-03T05:35:18;6.03;;;4.25;;
58366;SDS011;57745;42.524;12.052;2022-11-03T05:37:46;7.97;;;4.35;;
58366;SDS011;57745;42.524;12.052;2022-11-03T05:40:24;6.30;;;4.43;;
58366;SDS011;57745;42.524;12.052;2022-11-03T05:42:52;6.80;;;4.60;;
58366;SDS011;57745;42.524;12.052;2022-11-03T05:47:57;8.48;;;4.45;;
58366;SDS011;57745;42.524;12.052;2022-11-03T05:50:26;6.18;;;4.10;;
58366;SDS011;57745;42.524;12.052;2022-11-03T05:53:42;4.72;;;3.97;;
58366;SDS011;57745;42.524;12.052;2022-11-03T05:56:00;6.25;;;4.25;;
58366;SDS011;57745;42.524;12.052;2022-11-03T05:58:30;5.32;;;3.85;;
58366;SDS011;57745;42.524;12.052;2022-11-03T06:03:40;7.38;;;4.35;;
58366;SDS011;57745;42.524;12.052;2022-11-03T06:09:14;7.15;;;4.10;;
58366;SDS011;57745;42.524;12.052;2022-11-03T06:11:43;7.20;;;4.45;;
58366;SDS011;57745;42.524;12.052;2022-11-03T06:21:52;6.60;;;4.88;;
58366;SDS011;57745;42.524;12.052;2022-11-03T06:24:22;5.78;;;4.40;;
58366;SDS011;57745;42.524;12.052;2022-11-03T06:26:50;7.85;;;5.07;;
58366;SDS011;57745;42.524;12.052;2022-11-03T06:29:17;6.85;;;4.20;;
58366;SDS011;57745;42.524;12.052;2022-11-03T06:31:45;7.47;;;4.00;;
58366;SDS011;57745;42.524;12.052;2022-11-03T06:39:48;10.05;;;4.63;;
58366;SDS011;57745;42.524;12.052;2022-11-03T06:42:15;7.80;;;4.68;;
58366;SDS011;57745;42.524;12.052;2022-11-03T06:44:47;5.47;;;4.57;;
58366;SDS011;57745;42.524;12.052;2022-11-03T06:49:54;6.32;;;4.40;;
58366;SDS011;57745;42.524;12.052;2022-11-03T06:57:23;7.90;;;4.78;;
58366;SDS011;57745;42.524;12.052;2022-11-03T06:59:49;8.43;;;4.72;;
58366;SDS011;57745;42.524;12.052;2022-11-03T07:02:31;6.43;;;4.80;;
58366;SDS011;57745;42.524;12.052;2022-11-03T07:05:05;6.53;;;4.45;;
58366;SDS011;57745;42.524;12.052;2022-11-03T07:07:41;6.57;;;4.63;;
58366;SDS011;57745;42.524;12.052;2022-11-03T07:10:07;6.78;;;4.32;;
58366;SDS011;57745;42.524;12.052;2022-11-03T07:12:32;8.23;;;4.75;;
58366;SDS011;57745;42.524;12.052;2022-11-03T07:14:58;6.82;;;4.57;;
58366;SDS011;57745;42.524;12.052;2022-11-03T07:17:24;7.32;;;4.63;;
58366;SDS011;57745;42.524;12.052;2022-11-03T07:19:49;7.22;;;4.68;;
58366;SDS011;57745;42.524;12.052;2022-11-03T07:22:22;7.32;;;4.00;;
58366;SDS011;57745;42.524;12.052;2022-11-03T07:24:52;6.35;;;4.22;;
58366;SDS011;57745;42.524;12.052;2022-11-03T07:32:32;6.70;;;4.35;;
58366;SDS011;57745;42.524;12.052;2022-11-03T07:35:44;7.97;;;4.35;;
58366;SDS011;57745;42.524;12.052;2022-11-03T07:37:47;6.88;;;4.45;;
58366;SDS011;57745;42.524;12.052;2022-11-03T07:40:17;8.32;;;4.57;;
58366;SDS011;57745;42.524;12.052;2022-11-03T07:42:45;9.85;;;4.38;;
58366;SDS011;57745;42.524;12.052;2022-11-03T07:48:00;6.90;;;4.57;;
58366;SDS011;57745;42.524;12.052;2022-11-03T07:50:36;8.52;;;4.78;;
58366;SDS011;57745;42.524;12.052;2022-11-03T07:53:05;8.23;;;4.60;;
58366;SDS011;57745;42.524;12.052;2022-11-03T07:55:38;5.57;;;4.38;;
58366;SDS011;57745;42.524;12.052;2022-11-03T07:58:12;5.97;;;4.18;;
58366;SDS011;57745;42.524;12.052;2022-11-03T08:00:49;7.13;;;4.20;;
58366;SDS011;57745;42.524;12.052;2022-11-03T08:03:26;7.47;;;4.47;;
58366;SDS011;57745;42.524;12.052;2022-11-03T08:06:01;4.82;;;4.10;;
58366;SDS011;57745;42.524;12.052;2022-11-03T08:08:26;7.25;;;3.85;;
58366;SDS011;57745;42.524;12.052;2022-11-03T08:10:52;6.30;;;4.05;;
58366;SDS011;57745;42.524;12.052;2022-11-03T08:13:17;5.88;;;4.28;;
58366;SDS011;57745;42.524;12.052;2022-11-03T08:15:43;6.20;;;4.18;;
58366;SDS011;57745;42.524;12.052;2022-11-03T08:18:08;6.03;;;4.28;;
58366;SDS011;57745;42.524;12.052;2022-11-03T08:20:34;6.05;;;4.30;;
58366;SDS011;57745;42.524;12.052;2022-11-03T08:22:59;7.93;;;4.18;;
58366;SDS011;57745;42.524;12.052;2022-11-03T08:25:25;9.90;;;4.88;;
58366;SDS011;57745;42.524;12.052;2022-11-03T08:27:50;6.88;;;4.43;;
58366;SDS011;57745;42.524;12.052;2022-11-03T08:30:15;9.05;;;5.45;;
58366;SDS011;57745;42.524;12.052;2022-11-03T08:32:41;20.02;;;11.45;;
58366;SDS011;57745;42.524;12.052;2022-11-03T08:35:06;16.05;;;10.77;;
58366;SDS011;57745;42.524;12.052;2022-11-03T08:37:32;20.92;;;11.27;;
58366;SDS011;57745;42.524;12.052;2022-11-03T08:39:57;13.85;;;8.32;;
58366;SDS011;57745;42.524;12.052;2022-11-03T08:42:23;12.98;;;7.93;;
58366;SDS011;57745;42.524;12.052;2022-11-03T08:44:49;13.07;;;7.72;;
58366;SDS011;57745;42.524;12.052;2022-11-03T08:47:14;13.85;;;6.82;;
58366;SDS011;57745;42.524;12.052;2022-11-03T08:49:39;9.75;;;6.10;;
58366;SDS011;57745;42.524;12.052;2022-11-03T08:52:05;8.95;;;5.50;;
58366;SDS011;57745;42.524;12.052;2022-11-03T08:54:30;9.60;;;5.75;;
58366;SDS011;57745;42.524;12.052;2022-11-03T08:56:56;11.77;;;5.30;;
58366;SDS011;57745;42.524;12.052;2022-11-03T08:59:21;8.82;;;4.95;;
58366;SDS011;57745;42.524;12.052;2022-11-03T09:01:48;7.38;;;5.20;;
58366;SDS011;57745;42.524;12.052;2022-11-03T09:04:14;9.77;;;5.00;;
58366;SDS011;57745;42.524;12.052;2022-11-03T09:06:40;8.32;;;5.28;;
58366;SDS011;57745;42.524;12.052;2022-11-03T09:09:05;8.10;;;4.65;;
58366;SDS011;57745;42.524;12.052;2022-11-03T09:11:31;10.15;;;5.07;;
58366;SDS011;57745;42.524;12.052;2022-11-03T09:13:56;8.43;;;5.18;;
58366;SDS011;57745;42.524;12.052;2022-11-03T09:16:21;10.55;;;4.65;;
58366;SDS011;57745;42.524;12.052;2022-11-03T09:18:47;6.32;;;4.55;;
58366;SDS011;57745;42.524;12.052;2022-11-03T09:21:12;7.60;;;4.53;;
58366;SDS011;57745;42.524;12.052;2022-11-03T09:23:38;7.40;;;4.85;;
58366;SDS011;57745;42.524;12.052;2022-11-03T09:26:04;6.05;;;4.85;;
58366;SDS011;57745;42.524;12.052;2022-11-03T09:28:30;5.72;;;4.50;;
58366;SDS011;57745;42.524;12.052;2022-11-03T09:30:56;6.88;;;4.25;;
58366;SDS011;57745;42.524;12.052;2022-11-03T09:33:21;5.47;;;4.10;;
58366;SDS011;57745;42.524;12.052;2022-11-03T09:35:47;6.40;;;4.55;;
58366;SDS011;57745;42.524;12.052;2022-11-03T09:38:12;7.63;;;4.32;;
58366;SDS011;57745;42.524;12.052;2022-11-03T09:40:38;7.00;;;3.95;;
58366;SDS011;57745;42.524;12.052;2022-11-03T09:43:03;6.38;;;3.78;;
58366;SDS011;57745;42.524;12.052;2022-11-03T09:45:30;5.00;;;4.22;;
58366;SDS011;57745;42.524;12.052;2022-11-03T09:47:56;6.90;;;4.45;;
58366;SDS011;57745;42.524;12.052;2022-11-03T09:50:21;4.85;;;3.60;;
58366;SDS011;57745;42.524;12.052;2022-11-03T09:52:47;6.22;;;3.88;;
58366;SDS011;57745;42.524;12.052;2022-11-03T09:55:22;5.55;;;3.70;;
58366;SDS011;57745;42.524;12.052;2022-11-03T09:58:23;5.78;;;3.58;;
58366;SDS011;57745;42.524;12.052;2022-11-03T10:00:42;5.30;;;3.70;;
58366;SDS011;57745;42.524;12.052;2022-11-03T10:03:11;5.18;;;3.58;;
58366;SDS011;57745;42.524;12.052;2022-11-03T10:05:39;5.38;;;3.75;;
58366;SDS011;57745;42.524;12.052;2022-11-03T10:08:15;5.45;;;3.70;;
58366;SDS011;57745;42.524;12.052;2022-11-03T10:10:46;4.28;;;3.22;;
58366;SDS011;57745;42.524;12.052;2022-11-03T10:13:14;5.63;;;3.47;;
58366;SDS011;57745;42.524;12.052;2022-11-03T10:15:47;5.50;;;3.70;;
58366;SDS011;57745;42.524;12.052;2022-11-03T10:18:13;6.60;;;3.90;;
58366;SDS011;57745;42.524;12.052;2022-11-03T10:20:39;5.03;;;3.45;;
58366;SDS011;57745;42.524;12.052;2022-11-03T10:23:04;7.47;;;3.47;;
58366;SDS011;57745;42.524;12.052;2022-11-03T10:25:34;7.65;;;3.65;;
58366;SDS011;57745;42.524;12.052;2022-11-03T10:30:49;4.18;;;3.22;;
58366;SDS011;57745;42.524;12.052;2022-11-03T10:33:31;4.88;;;3.45;;
58366;SDS011;57745;42.524;12.052;2022-11-03T10:36:41;5.65;;;3.00;;
58366;SDS011;57745;42.524;12.052;2022-11-03T10:38:49;5.30;;;3.78;;
58366;SDS011;57745;42.524;12.052;2022-11-03T10:41:17;5.05;;;3.33;;
58366;SDS011;57745;42.524;12.052;2022-11-03T10:47:02;4.47;;;3.38;;
58366;SDS011;57745;42.524;12.052;2022-11-03T10:49:30;4.15;;;3.30;;
58366;SDS011;57745;42.524;12.052;2022-11-03T10:54:48;4.32;;;3.10;;
58366;SDS011;57745;42.524;12.052;2022-11-03T10:57:15;8.27;;;3.63;;
58366;SDS011;57745;42.524;12.052;2022-11-03T10:59:42;6.93;;;4.53;;
58366;SDS011;57745;42.524;12.052;2022-11-03T11:02:20;4.28;;;3.28;;
58366;SDS011;57745;42.524;12.052;2022-11-03T11:04:49;3.17;;;2.88;;
58366;SDS011;57745;42.524;12.052;2022-11-03T11:07:21;7.03;;;4.00;;
58366;SDS011;57745;42.524;12.052;2022-11-03T11:09:51;4.88;;;3.42;;
58366;SDS011;57745;42.524;12.052;2022-11-03T11:12:20;6.82;;;3.60;;
58366;SDS011;57745;42.524;12.052;2022-11-03T11:14:54;3.75;;;3.00;;
58366;SDS011;57745;42.524;12.052;2022-11-03T11:22:48;4.97;;;3.00;;
58366;SDS011;57745;42.524;12.052;2022-11-03T11:25:15;3.72;;;2.90;;
58366;SDS011;57745;42.524;12.052;2022-11-03T11:37:39;5.45;;;3.20;;
58366;SDS011;57745;42.524;12.052;2022-11-03T11:40:12;4.95;;;3.20;;
58366;SDS011;57745;42.524;12.052;2022-11-03T11:48:30;3.65;;;3.17;;
58366;SDS011;57745;42.524;12.052;2022-11-03T11:50:56;4.03;;;3.30;;
58366;SDS011;57745;42.524;12.052;2022-11-03T11:53:23;5.15;;;3.30;;
58366;SDS011;57745;42.524;12.052;2022-11-03T11:55:54;4.43;;;2.97;;
58366;SDS011;57745;42.524;12.052;2022-11-03T11:58:22;4.53;;;2.75;;
58366;SDS011;57745;42.524;12.052;2022-11-03T12:03:21;4.40;;;3.13;;
58366;SDS011;57745;42.524;12.052;2022-11-03T12:05:50;5.68;;;3.25;;
58366;SDS011;57745;42.524;12.052;2022-11-03T12:08:16;4.72;;;3.60;;
58366;SDS011;57745;42.524;12.052;2022-11-03T12:10:50;4.05;;;2.95;;
58366;SDS011;57745;42.524;12.052;2022-11-03T12:14:02;5.38;;;3.75;;
58366;SDS011;57745;42.524;12.052;2022-11-03T12:16:29;4.88;;;3.30;;
58366;SDS011;57745;42.524;12.052;2022-11-03T12:24:51;6.20;;;3.60;;
58366;SDS011;57745;42.524;12.052;2022-11-03T12:29:53;9.20;;;3.90;;
58366;SDS011;57745;42.524;12.052;2022-11-03T12:32:23;7.22;;;3.90;;
58366;SDS011;57745;42.524;12.052;2022-11-03T12:34:49;7.30;;;4.20;;
58366;SDS011;57745;42.524;12.052;2022-11-03T12:37:14;6.63;;;4.35;;
58366;SDS011;57745;42.524;12.052;2022-11-03T12:39:40;7.45;;;4.30;;
58366;SDS011;57745;42.524;12.052;2022-11-03T12:42:06;6.43;;;4.47;;
58366;SDS011;57745;42.524;12.052;2022-11-03T12:44:32;5.80;;;4.20;;
58366;SDS011;57745;42.524;12.052;2022-11-03T12:46:58;8.82;;;4.20;;
58366;SDS011;57745;42.524;12.052;2022-11-03T12:49:25;8.30;;;4.40;;
58366;SDS011;57745;42.524;12.052;2022-11-03T12:51:50;6.97;;;4.88;;
58366;SDS011;57745;42.524;12.052;2022-11-03T12:54:16;8.43;;;4.75;;
58366;SDS011;57745;42.524;12.052;2022-11-03T12:56:41;5.70;;;4.20;;
58366;SDS011;57745;42.524;12.052;2022-11-03T12:59:07;6.00;;;4.55;;
58366;SDS011;57745;42.524;12.052;2022-11-03T13:01:32;5.97;;;4.30;;
58366;SDS011;57745;42.524;12.052;2022-11-03T13:03:58;6.30;;;4.10;;
58366;SDS011;57745;42.524;12.052;2022-11-03T13:06:24;7.57;;;4.43;;
58366;SDS011;57745;42.524;12.052;2022-11-03T13:08:50;5.72;;;4.22;;
58366;SDS011;57745;42.524;12.052;2022-11-03T13:11:16;7.60;;;4.60;;
58366;SDS011;57745;42.524;12.052;2022-11-03T13:14:00;6.53;;;4.53;;
58366;SDS011;57745;42.524;12.052;2022-11-03T13:16:25;7.05;;;4.72;;
58366;SDS011;57745;42.524;12.052;2022-11-03T13:18:51;6.22;;;4.63;;
58366;SDS011;57745;42.524;12.052;2022-11-03T13:21:16;9.20;;;4.78;;
58366;SDS011;57745;42.524;12.052;2022-11-03T13:23:42;5.25;;;4.55;;
58366;SDS011;57745;42.524;12.052;2022-11-03T13:26:08;7.55;;;4.50;;
58366;SDS011;57745;42.524;12.052;2022-11-03T13:28:34;9.02;;;4.45;;
58366;SDS011;57745;42.524;12.052;2022-11-03T13:30:59;5.07;;;4.10;;
58366;SDS011;57745;42.524;12.052;2022-11-03T13:33:25;6.47;;;4.38;;
58366;SDS011;57745;42.524;12.052;2022-11-03T13:35:51;7.05;;;4.30;;
58366;SDS011;57745;42.524;12.052;2022-11-03T13:38:16;7.03;;;4.40;;
58366;SDS011;57745;42.524;12.052;2022-11-03T13:40:42;7.03;;;4.50;;
58366;SDS011;57745;42.524;12.052;2022-11-03T13:43:07;6.50;;;5.03;;
58366;SDS011;57745;42.524;12.052;2022-11-03T13:45:33;6.70;;;4.22;;
58366;SDS011;57745;42.524;12.052;2022-11-03T13:47:58;6.75;;;4.45;;
58366;SDS011;57745;42.524;12.052;2022-11-03T13:50:24;5.55;;;4.32;;
58366;SDS011;57745;42.524;12.052;2022-11-03T13:52:49;6.38;;;3.97;;
58366;SDS011;57745;42.524;12.052;2022-11-03T13:55:15;6.25;;;4.60;;
58366;SDS011;57745;42.524;12.052;2022-11-03T13:57:47;6.57;;;4.47;;
58366;SDS011;57745;42.524;12.052;2022-11-03T14:00:12;6.68;;;4.30;;
58366;SDS011;57745;42.524;12.052;2022-11-03T14:02:40;6.40;;;4.38;;
58366;SDS011;57745;42.524;12.052;2022-11-03T14:05:05;5.15;;;4.15;;
58366;SDS011;57745;42.524;12.052;2022-11-03T14:07:31;8.15;;;4.82;;
58366;SDS011;57745;42.524;12.052;2022-11-03T14:09:57;5.05;;;4.20;;
58366;SDS011;57745;42.524;12.052;2022-11-03T14:12:23;5.30;;;4.10;;
58366;SDS011;57745;42.524;12.052;2022-11-03T14:15:02;5.00;;;4.50;;
58366;SDS011;57745;42.524;12.052;2022-11-03T14:17:32;6.32;;;4.10;;
58366;SDS011;57745;42.524;12.052;2022-11-03T14:19:58;6.40;;;4.43;;
58366;SDS011;57745;42.524;12.052;2022-11-03T14:22:24;5.45;;;3.95;;
58366;SDS011;57745;42.524;12.052;2022-11-03T14:24:50;5.88;;;4.30;;
58366;SDS011;57745;42.524;12.052;2022-11-03T14:27:16;7.03;;;4.50;;
58366;SDS011;57745;42.524;12.052;2022-11-03T14:29:43;5.82;;;4.85;;
58366;SDS011;57745;42.524;12.052;2022-11-03T14:32:09;6.75;;;4.18;;
58366;SDS011;57745;42.524;12.052;2022-11-03T14:34:35;6.43;;;4.78;;
58366;SDS011;57745;42.524;12.052;2022-11-03T14:37:02;7.03;;;4.90;;
58366;SDS011;57745;42.524;12.052;2022-11-03T14:39:33;5.68;;;4.20;;
58366;SDS011;57745;42.524;12.052;2022-11-03T14:41:58;5.82;;;3.97;;
58366;SDS011;57745;42.524;12.052;2022-11-03T14:44:31;6.75;;;5.30;;
58366;SDS011;57745;42.524;12.052;2022-11-03T14:46:57;7.18;;;5.10;;
58366;SDS011;57745;42.524;12.052;2022-11-03T14:49:25;5.13;;;4.20;;
58366;SDS011;57745;42.524;12.052;2022-11-03T14:51:51;5.68;;;4.05;;
58366;SDS011;57745;42.524;12.052;2022-11-03T14:54:17;6.32;;;4.72;;
58366;SDS011;57745;42.524;12.052;2022-11-03T14:56:42;5.90;;;4.60;;
58366;SDS011;57745;42.524;12.052;2022-11-03T14:59:08;7.13;;;5.20;;
58366;SDS011;57745;42.524;12.052;2022-11-03T15:01:33;6.03;;;4.20;;
58366;SDS011;57745;42.524;12.052;2022-11-03T15:04:00;5.50;;;3.97;;
58366;SDS011;57745;42.524;12.052;2022-11-03T15:06:26;5.85;;;4.13;;
58366;SDS011;57745;42.524;12.052;2022-11-03T15:08:51;8.05;;;5.05;;
58366;SDS011;57745;42.524;12.052;2022-11-03T15:11:17;5.05;;;4.15;;
58366;SDS011;57745;42.524;12.052;2022-11-03T15:13:42;5.57;;;4.15;;
58366;SDS011;57745;42.524;12.052;2022-11-03T15:16:08;7.07;;;4.47;;
58366;SDS011;57745;42.524;12.052;2022-11-03T15:18:33;6.18;;;4.28;;
58366;SDS011;57745;42.524;12.052;2022-11-03T15:20:59;6.85;;;4.18;;
58366;SDS011;57745;42.524;12.052;2022-11-03T15:23:24;6.00;;;4.50;;
58366;SDS011;57745;42.524;12.052;2022-11-03T15:25:50;5.75;;;4.47;;
58366;SDS011;57745;42.524;12.052;2022-11-03T15:28:15;6.95;;;4.47;;
58366;SDS011;57745;42.524;12.052;2022-11-03T15:30:41;7.75;;;4.55;;
58366;SDS011;57745;42.524;12.052;2022-11-03T15:33:06;9.18;;;5.00;;
58366;SDS011;57745;42.524;12.052;2022-11-03T15:35:32;6.57;;;4.38;;
58366;SDS011;57745;42.524;12.052;2022-11-03T15:37:57;7.32;;;4.60;;
58366;SDS011;57745;42.524;12.052;2022-11-03T15:40:23;6.63;;;4.50;;
58366;SDS011;57745;42.524;12.052;2022-11-03T15:42:50;6.97;;;4.40;;
58366;SDS011;57745;42.524;12.052;2022-11-03T15:45:15;7.68;;;4.03;;
58366;SDS011;57745;42.524;12.052;2022-11-03T15:47:41;5.30;;;4.20;;
58366;SDS011;57745;42.524;12.052;2022-11-03T15:50:07;5.32;;;4.38;;
58366;SDS011;57745;42.524;12.052;2022-11-03T15:52:34;5.25;;;4.00;;
58366;SDS011;57745;42.524;12.052;2022-11-03T15:55:00;7.97;;;4.43;;
58366;SDS011;57745;42.524;12.052;2022-11-03T15:57:26;5.95;;;4.13;;
58366;SDS011;57745;42.524;12.052;2022-11-03T15:59:51;6.82;;;4.50;;
58366;SDS011;57745;42.524;12.052;2022-11-03T16:02:17;7.38;;;4.32;;
58366;SDS011;57745;42.524;12.052;2022-11-03T16:04:43;4.78;;;3.72;;
58366;SDS011;57745;42.524;12.052;2022-11-03T16:07:08;6.88;;;4.28;;
58366;SDS011;57745;42.524;12.052;2022-11-03T16:09:34;5.43;;;3.90;;
58366;SDS011;57745;42.524;12.052;2022-11-03T16:11:59;6.38;;;4.53;;
58366;SDS011;57745;42.524;12.052;2022-11-03T16:14:24;6.35;;;3.88;;
58366;SDS011;57745;42.524;12.052;2022-11-03T16:16:50;5.47;;;4.10;;
58366;SDS011;57745;42.524;12.052;2022-11-03T16:19:16;7.95;;;4.07;;
58366;SDS011;57745;42.524;12.052;2022-11-03T16:21:41;5.70;;;4.10;;
58366;SDS011;57745;42.524;12.052;2022-11-03T16:24:07;6.75;;;4.03;;
58366;SDS011;57745;42.524;12.052;2022-11-03T16:26:32;6.82;;;4.13;;
58366;SDS011;57745;42.524;12.052;2022-11-03T16:28:58;6.07;;;3.90;;
58366;SDS011;57745;42.524;12.052;2022-11-03T16:31:24;6.30;;;4.10;;